ADDS METAR Data INFO
IDs: Format: Raw Decoded Include TAF

Data at: 1159 UTC 21 Jun 2018

KTIF 211135Z AUTO 31009KT 10SM CLR 14/13 A3005 RMK AO2 T01400128
KTIF 211115Z AUTO 32009KT 10SM CLR 14/13 A3004 RMK AO2 T01410127
KTIF 211055Z AUTO 31010KT 10SM CLR 14/13 A3004 RMK AO2 T01420128
KTIF 211035Z AUTO 31009KT 10SM CLR 14/13 A3004 RMK AO2 T01410127
KTIF 211015Z AUTO 31009KT 10SM CLR 14/13 A3004 RMK AO2 T01430128
KTIF 210955Z AUTO 31009KT 10SM CLR 14/13 A3004 RMK AO2 T01420129
KTIF 210935Z AUTO 31009KT 10SM CLR 14/13 A3004 RMK AO2 T01410130
KTIF 210915Z AUTO 32008KT 10SM CLR 14/13 A3004 RMK AO2 T01410130
KTIF 210855Z AUTO 31008KT 10SM CLR 14/13 A3004 RMK AO2 T01420131
KTIF 210835Z AUTO 31008KT 10SM CLR 14/13 A3004 RMK AO2 T01430132
KTIF 210815Z AUTO 30009KT 10SM CLR 14/13 A3004 RMK AO2 T01440134
KTIF 210755Z AUTO 30009KT 10SM CLR 15/14 A3004 RMK AO2 T01450135
KTIF 210735Z AUTO 31008KT 10SM CLR 14/14 A3004 RMK AO2 T01430135
KTIF 210715Z AUTO 30009KT 10SM CLR 14/13 A3004 RMK AO2 T01430133
KTIF 210655Z AUTO 30008KT 10SM CLR 15/13 A3005 RMK AO2 T01450133
KTIF 210635Z AUTO 30009KT 10SM CLR 15/13 A3005 RMK AO2 T01450131
KTIF 210615Z AUTO 31007KT 10SM CLR 15/13 A3005 RMK AO2 T01450128
KTIF 210555Z AUTO 31007KT 10SM CLR 15/13 A3005 RMK AO2 T01450125 10212 20138 402120138
KTIF 210535Z AUTO 30005KT 10SM CLR 14/12 A3006 RMK AO2 T01410119
KTIF 210515Z AUTO 31005KT 10SM CLR 14/12 A3005 RMK AO2 T01400118
KTIF 210455Z AUTO 31005KT 10SM SCT050 SCT060 15/12 A3007 RMK AO2 T01450120
KTIF 210435Z AUTO 32006KT 10SM SCT050 BKN060 15/12 A3007 RMK AO2 T01540120
KTIF 210415Z AUTO 32007KT 10SM SCT060 SCT075 15/12 A3007 RMK AO2 T01520117
KTIF 210355Z AUTO 31005KT 10SM SCT060 14/12 A3008 RMK AO2 T01440116
KTIF 210335Z AUTO 29006KT 10SM SCT060 15/12 A3009 RMK AO2 T01460117
KTIF 210315Z AUTO 30006KT 10SM SCT060 15/12 A3008 RMK AO2 T01480120
KTIF 210255Z AUTO 29006KT 10SM CLR 15/13 A3008 RMK AO2 T01500126
KTIF 210235Z AUTO 31005KT 10SM CLR 16/13 A3007 RMK AO2 T01590125
KTIF 210215Z AUTO 32005KT 10SM CLR 17/13 A3007 RMK AO2 T01690125
KTIF 210155Z AUTO 34006KT 10SM CLR 18/12 A3006 RMK AO2 T01840123
KTIF 210135Z AUTO 36007KT 10SM CLR 19/12 A3005 RMK AO2 T01920120
KTIF 210115Z AUTO 36008KT 10SM CLR 20/12 A3005 RMK AO2 T01980116
KTIF 210055Z AUTO 36010KT 10SM CLR 20/11 A3005 RMK AO2 T02010114
KTIF 210035Z AUTO 34011G18KT 10SM CLR 21/12 A3005 RMK AO2 T02060117
KTIF 210015Z AUTO 36010G20KT 10SM SCT034 SCT043 BKN110 21/12 A3004 RMK AO2 T02080119
KTIF 202355Z AUTO 01012G19KT 10SM BKN034 BKN045 OVC050 21/13 A3003 RMK AO2 60001 T02110133 10212 20170
KTIF 202335Z AUTO 34009KT 10SM SCT032 SCT041 BKN049 21/14 A3003 RMK AO2 T02070141
KTIF 202315Z AUTO 01008KT 10SM SCT029 BKN041 OVC110 20/14 A3003 RMK AO2 T02040138
KTIF 202255Z AUTO 36010G15KT 10SM SCT029 SCT046 OVC110 20/14 A3003 RMK AO2 T02030136
KTIF 202235Z AUTO 34013KT 10SM SCT028 SCT035 BKN100 20/13 A3004 RMK AO2 T02010133
KTIF 202215Z AUTO 36010G18KT 330V030 10SM SCT037 SCT049 SCT110 20/14 A3003 RMK AO2 T02010136
KTIF 202155Z AUTO 36012G17KT 10SM SCT029 BKN050 OVC100 20/13 A3003 RMK AO2 T01950134
KTIF 202135Z AUTO 36011KT 10SM SCT025 BKN034 BKN042 20/14 A3003 RMK AO2 T02000138
KTIF 202115Z AUTO 01014G19KT 10SM SCT025 SCT033 SCT047 20/14 A3003 RMK AO2 T02000142
KTIF 202055Z AUTO 01015G21KT 10SM SCT023 BKN033 BKN040 20/14 A3003 RMK AO2 60001 T01990140
KTIF 202035Z AUTO 02014G20KT 10SM SCT027 BKN045 OVC050 19/14 A3003 RMK AO2 T01940137
KTIF 202015Z AUTO 02010G19KT 10SM SCT029 BKN050 OVC060 19/14 A3003 RMK AO2 T01900140
KTIF 201955Z AUTO 36010KT 10SM SCT029 BKN049 OVC085 19/14 A3003 RMK AO2 P0001 T01860143
KTIF 201935Z AUTO 35008G14KT 10SM -RA SCT027 BKN032 OVC042 18/15 A3003 RMK AO2 P0001 T01750149
KTIF 201915Z AUTO 29011KT 10SM -RA BKN025 BKN032 OVC050 17/16 A3002 RMK AO2 T01700157
KTIF 201855Z AUTO 30008KT 10SM -RA SCT023 BKN031 OVC050 18/15 A3002 RMK AO2 T01780153
KTIF 201835Z AUTO 33007KT 10SM SCT038 OVC050 19/14 A3001 RMK AO2 T01940140
KTIF 201815Z AUTO 36006KT 10SM SCT033 BKN040 OVC048 20/14 A3001 RMK AO2 T01990138
KTIF 201755Z AUTO 03006KT 10SM SCT026 BKN034 OVC085 20/15 A3000 RMK AO2 60001 T01980146 10202 20166
KTIF 201735Z AUTO 03005KT 10SM SCT022 SCT037 OVC095 20/14 A3000 RMK AO2 T02020144
KTIF 201715Z AUTO 04006KT 10SM SCT022 BKN070 OVC095 19/14 A3001 RMK AO2 T01930142
KTIF 201655Z AUTO 03010KT 10SM SCT022 BKN050 OVC080 19/15 A3001 RMK AO2 P0001 T01900145
KTIF 201635Z AUTO 04007KT 10SM SCT026 BKN035 OVC065 18/15 A3001 RMK AO2 P0001 T01770148
KTIF 201615Z AUTO 02010KT 10SM -RA SCT019 BKN030 OVC035 18/15 A3001 RMK AO2 T01760146
KTIF 201555Z AUTO 03010KT 10SM BKN017 OVC027 18/15 A3001 RMK AO2 T01830147
KTIF 201535Z AUTO 02009KT 10SM BKN015 OVC023 18/15 A3001 RMK AO2 T01820151
KTIF 201515Z AUTO 01008KT 10SM BKN015 BKN019 18/15 A3002 RMK AO2 T01840151
KTIF 201455Z AUTO 34012KT 10SM BKN012 OVC018 19/16 A3001 RMK AO2 T01920159
KTIF 201435Z AUTO 33010G16KT 10SM BKN012 18/16 A3001 RMK AO2 T01800156
KTIF 201415Z AUTO 33014KT 10SM BKN012 18/16 A3001 RMK AO2 T01820159
KTIF 201355Z AUTO 33013G19KT 10SM BKN010 BKN014 18/16 A3001 RMK AO2 T01750158
KTIF 201335Z AUTO 33010G16KT 10SM BKN012 OVC017 17/16 A3001 RMK AO2 T01700160
KTIF 201315Z AUTO 31011G17KT 10SM BKN010 BKN015 BKN028 17/16 A3001 RMK AO2 T01670157
KTIF 201255Z AUTO 30010KT 10SM OVC008 17/16 A3000 RMK AO2 T01710163
KTIF 201235Z AUTO 31005KT 10SM BKN008 BKN016 BKN036 18/17 A2999 RMK AO2 T01750170
KTIF 201215Z AUTO 31005KT 10SM BKN018 BKN034 OVC047 18/17 A2999 RMK AO2 LTG DSNT N T01750170
KTIF 201155Z AUTO 29004KT 10SM SCT017 BKN027 OVC070 18/17 A2999 RMK AO2 P0002 60002 70003 T01750170 10182 20173
KTIF 201135Z AUTO 31005KT 7SM RA SCT013 BKN060 OVC075 17/17 A2999 RMK AO2 LTG DSNT N P0001 T01730170
KTIF 201115Z AUTO 30005KT 10SM -RA SCT005 BKN010 OVC075 18/17 A2999 RMK AO2 T01750171
KTIF 201055Z AUTO 29005KT 10SM RA BKN004 BKN008 OVC055 18/17 A2998 RMK AO2 T01760172
KTIF 201035Z AUTO 29006KT 7SM -RA SCT004 BKN055 OVC070 18/17 A2998 RMK AO2 T01760171
KTIF 201015Z AUTO 29006KT 10SM SCT004 BKN013 OVC018 18/17 A2999 RMK AO2 T01760171
KTIF 200955Z AUTO 28003KT 10SM BKN004 OVC011 18/17 A2999 RMK AO2 T01770172
KTIF 200935Z AUTO 31003KT 10SM SCT011 BKN049 OVC060 18/17 A2999 RMK AO2 T01760171
KTIF 200915Z AUTO 00000KT 10SM SCT005 BKN049 OVC060 18/17 A2999 RMK AO2 T01780172
KTIF 200855Z AUTO 33004KT 10SM SCT003 BKN011 OVC049 18/17 A3000 RMK AO2 T01800173
KTIF 200835Z AUTO 34004KT 10SM BKN003 BKN011 OVC017 18/17 A3000 RMK AO2 T01800173
KTIF 200815Z AUTO 35004KT 10SM BKN014 OVC025 18/17 A2999 RMK AO2 T01800173
KTIF 200755Z AUTO 36004KT 10SM OVC012 18/17 A3000 RMK AO2 T01800173
KTIF 200735Z AUTO 33003KT 10SM SCT006 OVC012 18/17 A3001 RMK AO2 T01800173
KTIF 200715Z AUTO 00000KT 10SM BKN006 OVC012 18/18 A3002 RMK AO2 T01820175
KTIF 200655Z AUTO 02003KT 10SM OVC006 18/18 A3001 RMK AO2 T01820175
KTIF 200635Z AUTO 04003KT 10SM BKN008 OVC012 18/18 A3001 RMK AO2 T01820175
KTIF 200615Z AUTO 08003KT 10SM OVC008 18/18 A3002 RMK AO2 T01820175
KTIF 200555Z AUTO 00000KT 10SM OVC007 18/17 A3003 RMK AO2 T01810174 10208 20180 402240166
KTIF 200535Z AUTO 03003KT 10SM OVC007 18/17 A3002 RMK AO2 T01810173
KTIF 200515Z AUTO 05003KT 10SM SCT009 18/17 A3001 RMK AO2 T01810173
KTIF 200455Z AUTO 06006KT 10SM SCT049 18/17 A3001 RMK AO2 T01820173
KTIF 200435Z AUTO 06004KT 10SM SCT049 SCT120 18/17 A3003 RMK AO2 T01830173
KTIF 200415Z AUTO 07003KT 10SM -RA BKN120 19/17 A3003 RMK AO2 T01850173
KTIF 200355Z AUTO 08006KT 10SM SCT012 BKN120 19/17 A3002 RMK AO2 LTG DSNT E AND S T01870173
KTIF 200335Z AUTO 01004KT 10SM SCT120 19/17 A3004 RMK AO2 LTG DSNT S T01860172
KTIF 200315Z AUTO 07006KT 10SM VCTS CLR 19/17 A3002 RMK AO2 LTG DSNT E AND SE T01880171
KTIF 200255Z AUTO 05006KT 10SM CLR 19/17 A3002 RMK AO2 LTG DSNT SE T01900170
KTIF 200235Z AUTO 04005KT 10SM SCT048 SCT110 19/17 A3003 RMK AO2 LTG DSNT SE AND S T01920172
KTIF 200215Z AUTO 03006KT 10SM SCT035 OVC048 20/17 A3003 RMK AO2 LTG DSNT S T01970172
KTIF 200155Z AUTO 01006KT 10SM SCT013 SCT018 OVC035 20/17 A3001 RMK AO2 LTG DSNT SE AND S T01980173
KTIF 200135Z AUTO 03008KT 10SM BKN033 OVC046 20/17 A3000 RMK AO2 LTG DSNT N T02010173
KTIF 200115Z AUTO 36005KT 10SM BKN030 BKN036 OVC046 20/17 A3000 RMK AO2 LTG DSNT N T02030172
KTIF 200055Z AUTO 36007KT 10SM OVC030 21/17 A2999 RMK AO2 LTG DSNT S T02050172
KTIF 200035Z AUTO 36005KT 10SM BKN030 OVC039 21/17 A3000 RMK AO2 LTG DSNT NW T02060172
KTIF 200015Z AUTO 01006KT 10SM SCT029 SCT034 OVC039 21/17 A3001 RMK AO2 LTG DSNT SE T02060171